sensor_id;sensor_type;location;lat;lon;timestamp;P1;durP1;ratioP1;P2;durP2;ratioP2
41333;SDS011;27078;46.428;6.256;2023-04-25T00:01:54;5.63;;;2.20;;
41333;SDS011;27078;46.428;6.256;2023-04-25T00:04:21;5.90;;;2.20;;
41333;SDS011;27078;46.428;6.256;2023-04-25T00:06:47;8.75;;;2.30;;
41333;SDS011;27078;46.428;6.256;2023-04-25T00:09:12;6.68;;;2.20;;
41333;SDS011;27078;46.428;6.256;2023-04-25T00:11:38;4.97;;;2.00;;
41333;SDS011;27078;46.428;6.256;2023-04-25T00:14:03;7.07;;;2.20;;
41333;SDS011;27078;46.428;6.256;2023-04-25T00:16:29;5.15;;;2.10;;
41333;SDS011;27078;46.428;6.256;2023-04-25T00:18:58;4.25;;;1.98;;
41333;SDS011;27078;46.428;6.256;2023-04-25T00:21:24;6.60;;;2.13;;
41333;SDS011;27078;46.428;6.256;2023-04-25T00:23:52;6.10;;;2.38;;
41333;SDS011;27078;46.428;6.256;2023-04-25T00:26:17;4.35;;;1.92;;
41333;SDS011;27078;46.428;6.256;2023-04-25T00:28:43;7.32;;;2.08;;
41333;SDS011;27078;46.428;6.256;2023-04-25T00:31:09;7.57;;;2.08;;
41333;SDS011;27078;46.428;6.256;2023-04-25T00:33:34;7.70;;;2.00;;
41333;SDS011;27078;46.428;6.256;2023-04-25T00:36:00;7.15;;;2.13;;
41333;SDS011;27078;46.428;6.256;2023-04-25T00:38:25;7.40;;;2.05;;
41333;SDS011;27078;46.428;6.256;2023-04-25T00:40:51;5.65;;;2.00;;
41333;SDS011;27078;46.428;6.256;2023-04-25T00:43:17;8.07;;;2.28;;
41333;SDS011;27078;46.428;6.256;2023-04-25T00:45:43;5.20;;;2.17;;
41333;SDS011;27078;46.428;6.256;2023-04-25T00:48:09;5.22;;;2.10;;
41333;SDS011;27078;46.428;6.256;2023-04-25T00:50:35;5.82;;;2.30;;
41333;SDS011;27078;46.428;6.256;2023-04-25T00:53:01;8.82;;;2.08;;
41333;SDS011;27078;46.428;6.256;2023-04-25T00:55:28;3.78;;;1.90;;
41333;SDS011;27078;46.428;6.256;2023-04-25T00:57:53;4.25;;;1.90;;
41333;SDS011;27078;46.428;6.256;2023-04-25T01:00:19;6.38;;;1.95;;
41333;SDS011;27078;46.428;6.256;2023-04-25T01:02:45;3.30;;;1.60;;
41333;SDS011;27078;46.428;6.256;2023-04-25T01:05:11;2.55;;;1.25;;
41333;SDS011;27078;46.428;6.256;2023-04-25T01:07:37;1.75;;;0.90;;
41333;SDS011;27078;46.428;6.256;2023-04-25T01:10:03;3.15;;;0.93;;
41333;SDS011;27078;46.428;6.256;2023-04-25T01:12:29;2.05;;;0.80;;
41333;SDS011;27078;46.428;6.256;2023-04-25T01:14:55;3.97;;;0.90;;
41333;SDS011;27078;46.428;6.256;2023-04-25T01:17:21;2.85;;;0.90;;
41333;SDS011;27078;46.428;6.256;2023-04-25T01:19:46;4.47;;;0.70;;
41333;SDS011;27078;46.428;6.256;2023-04-25T01:22:13;3.38;;;0.85;;
41333;SDS011;27078;46.428;6.256;2023-04-25T01:24:39;1.88;;;0.70;;
41333;SDS011;27078;46.428;6.256;2023-04-25T01:27:05;2.85;;;0.80;;
41333;SDS011;27078;46.428;6.256;2023-04-25T01:29:31;4.22;;;0.82;;
41333;SDS011;27078;46.428;6.256;2023-04-25T01:31:59;2.28;;;0.77;;
41333;SDS011;27078;46.428;6.256;2023-04-25T01:34:25;2.28;;;0.77;;
41333;SDS011;27078;46.428;6.256;2023-04-25T01:36:51;3.70;;;0.73;;
41333;SDS011;27078;46.428;6.256;2023-04-25T01:39:17;3.42;;;0.80;;
41333;SDS011;27078;46.428;6.256;2023-04-25T01:41:44;3.53;;;0.80;;
41333;SDS011;27078;46.428;6.256;2023-04-25T01:44:10;2.65;;;0.80;;
41333;SDS011;27078;46.428;6.256;2023-04-25T01:46:36;2.17;;;0.80;;
41333;SDS011;27078;46.428;6.256;2023-04-25T01:49:01;2.55;;;0.75;;
41333;SDS011;27078;46.428;6.256;2023-04-25T01:51:27;3.03;;;1.00;;
41333;SDS011;27078;46.428;6.256;2023-04-25T01:53:53;2.60;;;0.77;;
41333;SDS011;27078;46.428;6.256;2023-04-25T01:56:19;2.67;;;0.85;;
41333;SDS011;27078;46.428;6.256;2023-04-25T01:58:45;4.38;;;0.73;;
41333;SDS011;27078;46.428;6.256;2023-04-25T02:01:10;2.95;;;0.90;;
41333;SDS011;27078;46.428;6.256;2023-04-25T02:03:36;2.22;;;1.02;;
41333;SDS011;27078;46.428;6.256;2023-04-25T02:06:01;4.85;;;1.00;;
41333;SDS011;27078;46.428;6.256;2023-04-25T02:08:27;2.90;;;1.02;;
41333;SDS011;27078;46.428;6.256;2023-04-25T02:10:52;4.07;;;1.08;;
41333;SDS011;27078;46.428;6.256;2023-04-25T02:13:18;2.47;;;0.90;;
41333;SDS011;27078;46.428;6.256;2023-04-25T02:15:43;2.70;;;0.90;;
41333;SDS011;27078;46.428;6.256;2023-04-25T02:18:08;2.15;;;1.00;;
41333;SDS011;27078;46.428;6.256;2023-04-25T02:20:35;3.42;;;1.00;;
41333;SDS011;27078;46.428;6.256;2023-04-25T02:23:01;4.35;;;0.95;;
41333;SDS011;27078;46.428;6.256;2023-04-25T02:25:27;2.58;;;1.10;;
41333;SDS011;27078;46.428;6.256;2023-04-25T02:27:52;3.30;;;1.08;;
41333;SDS011;27078;46.428;6.256;2023-04-25T02:30:17;3.80;;;1.45;;
41333;SDS011;27078;46.428;6.256;2023-04-25T02:32:43;4.25;;;1.50;;
41333;SDS011;27078;46.428;6.256;2023-04-25T02:35:08;3.97;;;1.67;;
41333;SDS011;27078;46.428;6.256;2023-04-25T02:37:34;3.75;;;1.73;;
41333;SDS011;27078;46.428;6.256;2023-04-25T02:40:01;3.80;;;1.55;;
41333;SDS011;27078;46.428;6.256;2023-04-25T02:42:28;5.85;;;1.80;;
41333;SDS011;27078;46.428;6.256;2023-04-25T02:44:53;4.88;;;1.65;;
41333;SDS011;27078;46.428;6.256;2023-04-25T02:47:19;4.10;;;1.55;;
41333;SDS011;27078;46.428;6.256;2023-04-25T02:49:45;4.07;;;1.60;;
41333;SDS011;27078;46.428;6.256;2023-04-25T02:52:11;3.67;;;1.60;;
41333;SDS011;27078;46.428;6.256;2023-04-25T02:54:37;5.47;;;1.83;;
41333;SDS011;27078;46.428;6.256;2023-04-25T02:57:03;4.45;;;1.73;;
41333;SDS011;27078;46.428;6.256;2023-04-25T02:59:28;4.97;;;1.80;;
41333;SDS011;27078;46.428;6.256;2023-04-25T03:01:54;7.35;;;2.10;;
41333;SDS011;27078;46.428;6.256;2023-04-25T03:04:19;4.28;;;1.67;;
41333;SDS011;27078;46.428;6.256;2023-04-25T03:06:45;5.03;;;2.08;;
41333;SDS011;27078;46.428;6.256;2023-04-25T03:09:11;3.90;;;1.70;;
41333;SDS011;27078;46.428;6.256;2023-04-25T03:11:38;3.53;;;1.70;;
41333;SDS011;27078;46.428;6.256;2023-04-25T03:14:03;3.97;;;1.67;;
41333;SDS011;27078;46.428;6.256;2023-04-25T03:16:32;5.53;;;1.80;;
41333;SDS011;27078;46.428;6.256;2023-04-25T03:18:57;4.72;;;1.83;;
41333;SDS011;27078;46.428;6.256;2023-04-25T03:21:23;4.10;;;1.90;;
41333;SDS011;27078;46.428;6.256;2023-04-25T03:23:51;5.07;;;2.00;;
41333;SDS011;27078;46.428;6.256;2023-04-25T03:26:17;4.03;;;1.63;;
41333;SDS011;27078;46.428;6.256;2023-04-25T03:28:42;6.03;;;2.10;;
41333;SDS011;27078;46.428;6.256;2023-04-25T03:31:07;4.93;;;2.03;;
41333;SDS011;27078;46.428;6.256;2023-04-25T03:33:33;5.38;;;1.70;;
41333;SDS011;27078;46.428;6.256;2023-04-25T03:35:58;5.55;;;2.15;;
41333;SDS011;27078;46.428;6.256;2023-04-25T03:38:23;4.82;;;2.00;;
41333;SDS011;27078;46.428;6.256;2023-04-25T03:40:49;5.25;;;2.30;;
41333;SDS011;27078;46.428;6.256;2023-04-25T03:43:15;5.32;;;2.17;;
41333;SDS011;27078;46.428;6.256;2023-04-25T03:45:41;4.93;;;2.00;;
41333;SDS011;27078;46.428;6.256;2023-04-25T03:48:06;4.72;;;2.03;;
41333;SDS011;27078;46.428;6.256;2023-04-25T03:50:31;5.07;;;1.95;;
41333;SDS011;27078;46.428;6.256;2023-04-25T03:52:57;4.63;;;1.85;;
41333;SDS011;27078;46.428;6.256;2023-04-25T03:55:22;3.03;;;1.80;;
41333;SDS011;27078;46.428;6.256;2023-04-25T03:57:47;6.60;;;2.00;;
41333;SDS011;27078;46.428;6.256;2023-04-25T04:00:13;3.97;;;1.98;;
41333;SDS011;27078;46.428;6.256;2023-04-25T04:02:39;5.40;;;2.10;;
41333;SDS011;27078;46.428;6.256;2023-04-25T04:05:04;4.55;;;2.10;;
41333;SDS011;27078;46.428;6.256;2023-04-25T04:07:30;5.55;;;2.10;;
41333;SDS011;27078;46.428;6.256;2023-04-25T04:09:57;4.80;;;2.28;;
41333;SDS011;27078;46.428;6.256;2023-04-25T04:12:23;5.93;;;2.10;;
41333;SDS011;27078;46.428;6.256;2023-04-25T04:14:48;3.40;;;1.90;;
41333;SDS011;27078;46.428;6.256;2023-04-25T04:17:14;5.03;;;2.20;;
41333;SDS011;27078;46.428;6.256;2023-04-25T04:19:39;5.07;;;2.45;;
41333;SDS011;27078;46.428;6.256;2023-04-25T04:22:05;6.57;;;2.17;;
41333;SDS011;27078;46.428;6.256;2023-04-25T04:24:30;4.63;;;2.33;;
41333;SDS011;27078;46.428;6.256;2023-04-25T04:26:55;6.45;;;2.10;;
41333;SDS011;27078;46.428;6.256;2023-04-25T04:29:21;4.85;;;2.20;;
41333;SDS011;27078;46.428;6.256;2023-04-25T04:31:48;5.35;;;2.15;;
41333;SDS011;27078;46.428;6.256;2023-04-25T04:34:14;6.10;;;2.20;;
41333;SDS011;27078;46.428;6.256;2023-04-25T04:36:41;5.38;;;2.13;;
41333;SDS011;27078;46.428;6.256;2023-04-25T04:39:07;5.00;;;2.30;;
41333;SDS011;27078;46.428;6.256;2023-04-25T04:41:34;5.00;;;2.38;;
41333;SDS011;27078;46.428;6.256;2023-04-25T04:43:59;3.13;;;2.30;;
41333;SDS011;27078;46.428;6.256;2023-04-25T04:46:26;5.65;;;2.50;;
41333;SDS011;27078;46.428;6.256;2023-04-25T04:48:52;8.23;;;2.75;;
41333;SDS011;27078;46.428;6.256;2023-04-25T04:51:18;6.32;;;2.63;;
41333;SDS011;27078;46.428;6.256;2023-04-25T04:53:44;4.93;;;2.50;;
41333;SDS011;27078;46.428;6.256;2023-04-25T04:56:09;5.30;;;2.38;;
41333;SDS011;27078;46.428;6.256;2023-04-25T04:58:34;6.05;;;2.10;;
41333;SDS011;27078;46.428;6.256;2023-04-25T05:01:01;5.82;;;2.30;;
41333;SDS011;27078;46.428;6.256;2023-04-25T05:03:27;3.85;;;2.25;;
41333;SDS011;27078;46.428;6.256;2023-04-25T05:05:52;5.40;;;2.53;;
41333;SDS011;27078;46.428;6.256;2023-04-25T05:08:18;5.20;;;2.45;;
41333;SDS011;27078;46.428;6.256;2023-04-25T05:10:43;4.35;;;2.25;;
41333;SDS011;27078;46.428;6.256;2023-04-25T05:13:08;5.00;;;2.30;;
41333;SDS011;27078;46.428;6.256;2023-04-25T05:15:34;5.22;;;2.13;;
41333;SDS011;27078;46.428;6.256;2023-04-25T05:17:59;5.43;;;2.85;;
41333;SDS011;27078;46.428;6.256;2023-04-25T05:20:25;5.55;;;2.70;;
41333;SDS011;27078;46.428;6.256;2023-04-25T05:22:50;4.60;;;2.17;;
41333;SDS011;27078;46.428;6.256;2023-04-25T05:25:16;3.75;;;2.80;;
41333;SDS011;27078;46.428;6.256;2023-04-25T05:27:41;5.07;;;2.58;;
41333;SDS011;27078;46.428;6.256;2023-04-25T05:30:07;5.88;;;3.22;;
41333;SDS011;27078;46.428;6.256;2023-04-25T05:32:33;6.50;;;3.17;;
41333;SDS011;27078;46.428;6.256;2023-04-25T05:34:59;8.15;;;3.42;;
41333;SDS011;27078;46.428;6.256;2023-04-25T05:37:25;7.97;;;3.30;;
41333;SDS011;27078;46.428;6.256;2023-04-25T05:39:50;6.05;;;2.80;;
41333;SDS011;27078;46.428;6.256;2023-04-25T05:42:15;5.28;;;2.90;;
41333;SDS011;27078;46.428;6.256;2023-04-25T05:44:41;4.72;;;2.80;;
41333;SDS011;27078;46.428;6.256;2023-04-25T05:47:06;6.50;;;2.70;;
41333;SDS011;27078;46.428;6.256;2023-04-25T05:49:31;5.82;;;2.85;;
41333;SDS011;27078;46.428;6.256;2023-04-25T05:51:57;5.13;;;2.85;;
41333;SDS011;27078;46.428;6.256;2023-04-25T05:54:22;6.35;;;3.20;;
41333;SDS011;27078;46.428;6.256;2023-04-25T05:56:48;6.47;;;2.72;;
41333;SDS011;27078;46.428;6.256;2023-04-25T05:59:13;4.97;;;2.72;;
41333;SDS011;27078;46.428;6.256;2023-04-25T06:01:38;6.22;;;2.60;;
41333;SDS011;27078;46.428;6.256;2023-04-25T06:04:04;5.55;;;2.50;;
41333;SDS011;27078;46.428;6.256;2023-04-25T06:06:32;8.30;;;2.80;;
41333;SDS011;27078;46.428;6.256;2023-04-25T06:08:57;5.63;;;2.70;;
41333;SDS011;27078;46.428;6.256;2023-04-25T06:11:23;6.22;;;2.90;;
41333;SDS011;27078;46.428;6.256;2023-04-25T06:13:48;6.85;;;2.95;;
41333;SDS011;27078;46.428;6.256;2023-04-25T06:16:13;7.25;;;3.05;;
41333;SDS011;27078;46.428;6.256;2023-04-25T06:18:39;6.57;;;3.15;;
41333;SDS011;27078;46.428;6.256;2023-04-25T06:21:04;4.88;;;2.75;;
41333;SDS011;27078;46.428;6.256;2023-04-25T06:23:30;5.32;;;2.80;;
41333;SDS011;27078;46.428;6.256;2023-04-25T06:25:55;4.03;;;2.47;;
41333;SDS011;27078;46.428;6.256;2023-04-25T06:28:20;7.25;;;2.90;;
41333;SDS011;27078;46.428;6.256;2023-04-25T06:30:47;3.70;;;2.65;;
41333;SDS011;27078;46.428;6.256;2023-04-25T06:33:12;9.82;;;3.08;;
41333;SDS011;27078;46.428;6.256;2023-04-25T06:35:37;4.65;;;3.05;;
41333;SDS011;27078;46.428;6.256;2023-04-25T06:38:03;7.00;;;2.80;;
41333;SDS011;27078;46.428;6.256;2023-04-25T06:40:28;5.95;;;2.58;;
41333;SDS011;27078;46.428;6.256;2023-04-25T06:42:53;6.28;;;2.50;;
41333;SDS011;27078;46.428;6.256;2023-04-25T06:45:19;6.43;;;2.80;;
41333;SDS011;27078;46.428;6.256;2023-04-25T06:47:44;7.18;;;2.30;;
41333;SDS011;27078;46.428;6.256;2023-04-25T06:50:10;4.43;;;2.40;;
41333;SDS011;27078;46.428;6.256;2023-04-25T06:52:36;3.60;;;2.10;;
41333;SDS011;27078;46.428;6.256;2023-04-25T06:55:01;6.38;;;2.22;;
41333;SDS011;27078;46.428;6.256;2023-04-25T06:57:27;4.90;;;2.05;;
41333;SDS011;27078;46.428;6.256;2023-04-25T06:59:52;6.93;;;2.10;;
41333;SDS011;27078;46.428;6.256;2023-04-25T07:02:18;6.13;;;2.00;;
41333;SDS011;27078;46.428;6.256;2023-04-25T07:04:43;3.60;;;1.52;;
41333;SDS011;27078;46.428;6.256;2023-04-25T07:07:10;5.45;;;2.10;;
41333;SDS011;27078;46.428;6.256;2023-04-25T07:09:35;4.63;;;1.90;;
41333;SDS011;27078;46.428;6.256;2023-04-25T07:12:00;7.22;;;2.38;;
41333;SDS011;27078;46.428;6.256;2023-04-25T07:14:26;5.20;;;1.98;;
41333;SDS011;27078;46.428;6.256;2023-04-25T07:16:52;5.78;;;2.13;;
41333;SDS011;27078;46.428;6.256;2023-04-25T07:19:17;3.55;;;2.00;;
41333;SDS011;27078;46.428;6.256;2023-04-25T07:21:43;4.78;;;1.80;;
41333;SDS011;27078;46.428;6.256;2023-04-25T07:24:08;7.93;;;2.00;;
41333;SDS011;27078;46.428;6.256;2023-04-25T07:26:33;4.85;;;1.90;;
41333;SDS011;27078;46.428;6.256;2023-04-25T07:28:59;6.15;;;1.90;;
41333;SDS011;27078;46.428;6.256;2023-04-25T07:31:24;6.65;;;1.98;;
41333;SDS011;27078;46.428;6.256;2023-04-25T07:33:50;4.18;;;1.83;;
41333;SDS011;27078;46.428;6.256;2023-04-25T07:36:15;3.08;;;1.70;;
41333;SDS011;27078;46.428;6.256;2023-04-25T07:38:40;5.32;;;1.95;;
41333;SDS011;27078;46.428;6.256;2023-04-25T07:41:06;6.13;;;1.90;;
41333;SDS011;27078;46.428;6.256;2023-04-25T07:43:31;4.20;;;1.42;;
41333;SDS011;27078;46.428;6.256;2023-04-25T07:45:57;3.33;;;1.70;;
41333;SDS011;27078;46.428;6.256;2023-04-25T07:48:22;6.32;;;1.65;;
41333;SDS011;27078;46.428;6.256;2023-04-25T07:50:48;4.40;;;1.70;;
41333;SDS011;27078;46.428;6.256;2023-04-25T07:53:14;5.20;;;2.00;;
41333;SDS011;27078;46.428;6.256;2023-04-25T07:55:40;5.05;;;1.67;;
41333;SDS011;27078;46.428;6.256;2023-04-25T07:58:05;3.65;;;1.63;;
41333;SDS011;27078;46.428;6.256;2023-04-25T08:00:31;6.88;;;1.95;;
41333;SDS011;27078;46.428;6.256;2023-04-25T08:02:57;4.65;;;1.88;;
41333;SDS011;27078;46.428;6.256;2023-04-25T08:05:22;6.22;;;2.05;;
41333;SDS011;27078;46.428;6.256;2023-04-25T08:07:47;5.68;;;2.00;;
41333;SDS011;27078;46.428;6.256;2023-04-25T08:10:13;3.65;;;1.77;;
41333;SDS011;27078;46.428;6.256;2023-04-25T08:12:38;5.10;;;1.80;;
41333;SDS011;27078;46.428;6.256;2023-04-25T08:15:04;4.30;;;1.77;;
41333;SDS011;27078;46.428;6.256;2023-04-25T08:17:31;4.65;;;1.80;;
41333;SDS011;27078;46.428;6.256;2023-04-25T08:19:56;3.20;;;1.60;;
41333;SDS011;27078;46.428;6.256;2023-04-25T08:22:22;6.60;;;1.55;;
41333;SDS011;27078;46.428;6.256;2023-04-25T08:24:47;3.88;;;1.45;;
41333;SDS011;27078;46.428;6.256;2023-04-25T08:27:13;2.70;;;1.42;;
41333;SDS011;27078;46.428;6.256;2023-04-25T08:29:38;4.93;;;1.60;;
41333;SDS011;27078;46.428;6.256;2023-04-25T08:32:03;5.03;;;1.75;;
41333;SDS011;27078;46.428;6.256;2023-04-25T08:34:29;3.85;;;1.58;;
41333;SDS011;27078;46.428;6.256;2023-04-25T08:36:54;4.47;;;1.80;;
41333;SDS011;27078;46.428;6.256;2023-04-25T08:39:19;5.63;;;1.88;;
41333;SDS011;27078;46.428;6.256;2023-04-25T08:41:45;4.78;;;1.60;;
41333;SDS011;27078;46.428;6.256;2023-04-25T08:44:11;4.30;;;1.70;;
41333;SDS011;27078;46.428;6.256;2023-04-25T08:46:40;2.80;;;1.40;;
41333;SDS011;27078;46.428;6.256;2023-04-25T08:49:06;3.97;;;1.20;;
41333;SDS011;27078;46.428;6.256;2023-04-25T08:51:33;2.78;;;1.10;;
41333;SDS011;27078;46.428;6.256;2023-04-25T08:54:10;1.75;;;0.60;;
41333;SDS011;27078;46.428;6.256;2023-04-25T08:56:40;1.20;;;0.50;;
41333;SDS011;27078;46.428;6.256;2023-04-25T08:59:09;1.75;;;0.35;;
41333;SDS011;27078;46.428;6.256;2023-04-25T09:01:35;2.05;;;0.50;;
41333;SDS011;27078;46.428;6.256;2023-04-25T09:04:01;1.77;;;0.50;;
41333;SDS011;27078;46.428;6.256;2023-04-25T09:06:27;1.80;;;0.60;;
41333;SDS011;27078;46.428;6.256;2023-04-25T09:08:55;0.95;;;0.40;;
41333;SDS011;27078;46.428;6.256;2023-04-25T09:11:27;1.10;;;0.40;;
41333;SDS011;27078;46.428;6.256;2023-04-25T09:14:09;1.35;;;0.40;;
41333;SDS011;27078;46.428;6.256;2023-04-25T09:16:57;1.55;;;0.40;;
41333;SDS011;27078;46.428;6.256;2023-04-25T09:19:27;0.85;;;0.30;;
41333;SDS011;27078;46.428;6.256;2023-04-25T09:22:01;1.00;;;0.40;;
41333;SDS011;27078;46.428;6.256;2023-04-25T09:24:33;1.30;;;0.40;;
41333;SDS011;27078;46.428;6.256;2023-04-25T09:29:37;1.83;;;0.50;;
41333;SDS011;27078;46.428;6.256;2023-04-25T09:32:19;2.42;;;0.50;;
41333;SDS011;27078;46.428;6.256;2023-04-25T09:37:18;2.03;;;0.47;;
41333;SDS011;27078;46.428;6.256;2023-04-25T09:39:45;1.88;;;0.45;;
41333;SDS011;27078;46.428;6.256;2023-04-25T09:42:15;2.13;;;0.60;;
41333;SDS011;27078;46.428;6.256;2023-04-25T09:44:42;1.15;;;0.60;;
41333;SDS011;27078;46.428;6.256;2023-04-25T09:47:10;2.10;;;0.63;;
41333;SDS011;27078;46.428;6.256;2023-04-25T09:49:38;1.50;;;0.65;;
41333;SDS011;27078;46.428;6.256;2023-04-25T09:52:05;1.63;;;0.45;;
41333;SDS011;27078;46.428;6.256;2023-04-25T09:54:31;2.40;;;0.60;;
41333;SDS011;27078;46.428;6.256;2023-04-25T09:56:58;2.17;;;0.60;;
41333;SDS011;27078;46.428;6.256;2023-04-25T09:59:32;2.08;;;0.70;;
41333;SDS011;27078;46.428;6.256;2023-04-25T10:02:03;1.15;;;0.57;;
41333;SDS011;27078;46.428;6.256;2023-04-25T10:04:29;2.20;;;0.55;;
41333;SDS011;27078;46.428;6.256;2023-04-25T10:06:59;1.73;;;0.60;;
41333;SDS011;27078;46.428;6.256;2023-04-25T10:09:25;1.95;;;0.52;;
41333;SDS011;27078;46.428;6.256;2023-04-25T10:11:51;1.30;;;0.60;;
41333;SDS011;27078;46.428;6.256;2023-04-25T10:14:17;1.95;;;0.60;;
41333;SDS011;27078;46.428;6.256;2023-04-25T10:16:43;2.38;;;0.60;;
41333;SDS011;27078;46.428;6.256;2023-04-25T10:19:10;1.75;;;0.68;;
41333;SDS011;27078;46.428;6.256;2023-04-25T10:21:36;2.42;;;0.50;;
41333;SDS011;27078;46.428;6.256;2023-04-25T10:24:15;2.20;;;0.40;;
41333;SDS011;27078;46.428;6.256;2023-04-25T10:26:40;2.42;;;0.40;;
41333;SDS011;27078;46.428;6.256;2023-04-25T10:29:06;1.30;;;0.30;;
41333;SDS011;27078;46.428;6.256;2023-04-25T10:31:31;9.55;;;0.80;;
41333;SDS011;27078;46.428;6.256;2023-04-25T10:33:57;1.63;;;0.40;;
41333;SDS011;27078;46.428;6.256;2023-04-25T10:36:27;1.45;;;0.50;;
41333;SDS011;27078;46.428;6.256;2023-04-25T10:38:58;1.17;;;0.50;;
41333;SDS011;27078;46.428;6.256;2023-04-25T10:41:46;2.55;;;0.40;;
41333;SDS011;27078;46.428;6.256;2023-04-25T10:44:13;5.75;;;0.60;;
41333;SDS011;27078;46.428;6.256;2023-04-25T10:46:40;3.75;;;0.70;;
41333;SDS011;27078;46.428;6.256;2023-04-25T10:49:06;7.60;;;0.85;;
41333;SDS011;27078;46.428;6.256;2023-04-25T10:51:35;5.47;;;0.68;;
41333;SDS011;27078;46.428;6.256;2023-04-25T10:54:03;3.53;;;0.80;;
41333;SDS011;27078;46.428;6.256;2023-04-25T11:01:47;1.83;;;0.55;;
41333;SDS011;27078;46.428;6.256;2023-04-25T11:04:31;2.40;;;0.60;;
41333;SDS011;27078;46.428;6.256;2023-04-25T11:09:32;2.17;;;0.70;;
41333;SDS011;27078;46.428;6.256;2023-04-25T11:11:59;1.48;;;0.60;;
41333;SDS011;27078;46.428;6.256;2023-04-25T11:14:26;2.22;;;0.70;;
41333;SDS011;27078;46.428;6.256;2023-04-25T11:16:55;1.67;;;0.70;;
41333;SDS011;27078;46.428;6.256;2023-04-25T11:19:23;2.78;;;0.80;;
41333;SDS011;27078;46.428;6.256;2023-04-25T11:21:50;3.10;;;0.75;;
41333;SDS011;27078;46.428;6.256;2023-04-25T11:24:16;1.98;;;0.60;;
41333;SDS011;27078;46.428;6.256;2023-04-25T11:26:43;2.78;;;0.60;;
41333;SDS011;27078;46.428;6.256;2023-04-25T11:29:13;2.97;;;0.70;;
41333;SDS011;27078;46.428;6.256;2023-04-25T11:31:42;4.15;;;0.60;;
41333;SDS011;27078;46.428;6.256;2023-04-25T11:34:11;1.90;;;0.80;;
41333;SDS011;27078;46.428;6.256;2023-04-25T11:36:37;3.38;;;0.55;;
41333;SDS011;27078;46.428;6.256;2023-04-25T11:39:04;1.95;;;0.60;;
41333;SDS011;27078;46.428;6.256;2023-04-25T11:41:30;2.03;;;0.60;;
41333;SDS011;27078;46.428;6.256;2023-04-25T11:43:57;2.58;;;0.50;;
41333;SDS011;27078;46.428;6.256;2023-04-25T11:46:22;2.17;;;0.70;;
41333;SDS011;27078;46.428;6.256;2023-04-25T11:48:49;3.88;;;0.60;;
41333;SDS011;27078;46.428;6.256;2023-04-25T11:51:15;1.58;;;0.52;;
41333;SDS011;27078;46.428;6.256;2023-04-25T11:53:42;3.15;;;0.50;;
41333;SDS011;27078;46.428;6.256;2023-04-25T11:56:10;1.90;;;0.60;;
41333;SDS011;27078;46.428;6.256;2023-04-25T12:01:29;3.38;;;0.80;;
41333;SDS011;27078;46.428;6.256;2023-04-25T12:03:57;2.47;;;0.77;;
41333;SDS011;27078;46.428;6.256;2023-04-25T12:06:27;2.50;;;0.82;;
41333;SDS011;27078;46.428;6.256;2023-04-25T12:09:10;3.47;;;0.75;;
41333;SDS011;27078;46.428;6.256;2023-04-25T12:11:44;1.67;;;0.50;;
41333;SDS011;27078;46.428;6.256;2023-04-25T12:14:12;1.35;;;0.57;;
41333;SDS011;27078;46.428;6.256;2023-04-25T12:16:46;3.03;;;0.70;;
41333;SDS011;27078;46.428;6.256;2023-04-25T12:19:14;1.73;;;0.60;;
41333;SDS011;27078;46.428;6.256;2023-04-25T12:21:42;1.67;;;0.50;;
41333;SDS011;27078;46.428;6.256;2023-04-25T12:24:13;1.63;;;0.77;;
41333;SDS011;27078;46.428;6.256;2023-04-25T12:29:25;2.65;;;0.63;;
41333;SDS011;27078;46.428;6.256;2023-04-25T12:31:53;1.90;;;0.80;;
41333;SDS011;27078;46.428;6.256;2023-04-25T12:34:20;2.80;;;0.68;;
41333;SDS011;27078;46.428;6.256;2023-04-25T12:36:47;1.77;;;0.70;;
41333;SDS011;27078;46.428;6.256;2023-04-25T12:39:23;3.33;;;0.80;;
41333;SDS011;27078;46.428;6.256;2023-04-25T12:41:51;1.63;;;0.57;;
41333;SDS011;27078;46.428;6.256;2023-04-25T12:44:20;1.75;;;0.60;;
41333;SDS011;27078;46.428;6.256;2023-04-25T12:46:46;2.22;;;0.50;;
41333;SDS011;27078;46.428;6.256;2023-04-25T12:49:13;2.88;;;0.80;;
41333;SDS011;27078;46.428;6.256;2023-04-25T12:51:39;1.77;;;0.70;;
41333;SDS011;27078;46.428;6.256;2023-04-25T12:54:05;2.17;;;0.60;;
41333;SDS011;27078;46.428;6.256;2023-04-25T12:56:32;1.88;;;0.50;;
41333;SDS011;27078;46.428;6.256;2023-04-25T12:58:58;1.65;;;0.60;;
41333;SDS011;27078;46.428;6.256;2023-04-25T13:01:24;1.73;;;0.57;;
41333;SDS011;27078;46.428;6.256;2023-04-25T13:03:51;2.42;;;0.70;;
41333;SDS011;27078;46.428;6.256;2023-04-25T13:06:18;2.25;;;0.65;;
41333;SDS011;27078;46.428;6.256;2023-04-25T13:08:45;2.20;;;0.80;;
41333;SDS011;27078;46.428;6.256;2023-04-25T13:11:11;2.78;;;0.70;;
41333;SDS011;27078;46.428;6.256;2023-04-25T13:13:37;4.30;;;0.85;;
41333;SDS011;27078;46.428;6.256;2023-04-25T13:16:04;3.72;;;0.80;;
41333;SDS011;27078;46.428;6.256;2023-04-25T13:18:30;2.78;;;0.80;;
41333;SDS011;27078;46.428;6.256;2023-04-25T13:20:56;2.70;;;0.80;;
41333;SDS011;27078;46.428;6.256;2023-04-25T13:23:25;3.55;;;0.90;;
41333;SDS011;27078;46.428;6.256;2023-04-25T13:25:52;3.28;;;1.05;;
41333;SDS011;27078;46.428;6.256;2023-04-25T13:28:19;2.80;;;0.80;;
41333;SDS011;27078;46.428;6.256;2023-04-25T13:30:46;2.72;;;0.82;;
41333;SDS011;27078;46.428;6.256;2023-04-25T13:33:13;2.28;;;0.70;;
41333;SDS011;27078;46.428;6.256;2023-04-25T13:35:40;2.40;;;0.88;;
41333;SDS011;27078;46.428;6.256;2023-04-25T13:38:07;2.65;;;0.70;;
41333;SDS011;27078;46.428;6.256;2023-04-25T13:40:32;7.35;;;0.98;;
41333;SDS011;27078;46.428;6.256;2023-04-25T13:42:58;2.80;;;0.70;;
41333;SDS011;27078;46.428;6.256;2023-04-25T13:45:24;2.72;;;0.93;;
41333;SDS011;27078;46.428;6.256;2023-04-25T13:47:50;2.53;;;0.75;;
41333;SDS011;27078;46.428;6.256;2023-04-25T13:50:16;3.38;;;0.80;;
41333;SDS011;27078;46.428;6.256;2023-04-25T13:52:42;2.80;;;0.70;;
41333;SDS011;27078;46.428;6.256;2023-04-25T13:55:08;2.88;;;0.75;;
41333;SDS011;27078;46.428;6.256;2023-04-25T13:57:35;3.25;;;0.80;;
41333;SDS011;27078;46.428;6.256;2023-04-25T14:00:02;2.75;;;0.88;;
41333;SDS011;27078;46.428;6.256;2023-04-25T14:02:34;2.78;;;0.70;;
41333;SDS011;27078;46.428;6.256;2023-04-25T14:05:01;2.17;;;0.70;;
41333;SDS011;27078;46.428;6.256;2023-04-25T14:07:28;2.70;;;0.70;;
41333;SDS011;27078;46.428;6.256;2023-04-25T14:09:55;2.28;;;0.90;;
41333;SDS011;27078;46.428;6.256;2023-04-25T14:12:23;4.40;;;0.93;;
41333;SDS011;27078;46.428;6.256;2023-04-25T14:14:48;2.30;;;0.77;;
41333;SDS011;27078;46.428;6.256;2023-04-25T14:17:14;2.63;;;0.68;;
41333;SDS011;27078;46.428;6.256;2023-04-25T14:19:40;2.47;;;0.88;;
41333;SDS011;27078;46.428;6.256;2023-04-25T14:22:10;3.53;;;0.80;;
41333;SDS011;27078;46.428;6.256;2023-04-25T14:24:36;1.83;;;0.77;;
41333;SDS011;27078;46.428;6.256;2023-04-25T14:27:02;1.67;;;0.80;;
41333;SDS011;27078;46.428;6.256;2023-04-25T14:29:29;2.88;;;0.95;;
41333;SDS011;27078;46.428;6.256;2023-04-25T14:31:55;3.30;;;0.80;;
41333;SDS011;27078;46.428;6.256;2023-04-25T14:34:22;1.58;;;0.80;;
41333;SDS011;27078;46.428;6.256;2023-04-25T14:36:48;1.92;;;1.00;;
41333;SDS011;27078;46.428;6.256;2023-04-25T14:39:14;2.70;;;0.80;;
41333;SDS011;27078;46.428;6.256;2023-04-25T14:41:40;1.92;;;0.80;;
41333;SDS011;27078;46.428;6.256;2023-04-25T14:44:05;3.00;;;0.80;;
41333;SDS011;27078;46.428;6.256;2023-04-25T14:46:31;2.78;;;0.80;;
41333;SDS011;27078;46.428;6.256;2023-04-25T14:48:57;2.88;;;0.75;;
41333;SDS011;27078;46.428;6.256;2023-04-25T14:51:23;3.08;;;0.80;;
41333;SDS011;27078;46.428;6.256;2023-04-25T14:53:48;2.42;;;0.85;;
41333;SDS011;27078;46.428;6.256;2023-04-25T14:56:15;2.80;;;0.77;;
41333;SDS011;27078;46.428;6.256;2023-04-25T14:58:41;3.05;;;0.85;;
41333;SDS011;27078;46.428;6.256;2023-04-25T15:01:07;2.80;;;0.80;;
41333;SDS011;27078;46.428;6.256;2023-04-25T15:03:33;2.83;;;0.80;;